createdAt,value
2018-04-14T00:02:13.160Z,18.13
2018-04-14T00:04:40.845Z,18.73
2018-04-14T00:07:08.516Z,22.27
2018-04-14T00:09:36.588Z,20.83
2018-04-14T00:12:04.316Z,22.23
2018-04-14T00:14:32.100Z,17.40
2018-04-14T00:17:00.244Z,19.47
2018-04-14T00:19:28.733Z,16.57
2018-04-14T00:21:57.172Z,14.87
2018-04-14T00:24:24.891Z,15.23
2018-04-14T00:26:53.159Z,14.07
2018-04-14T00:29:20.900Z,13.10
2018-04-14T00:31:48.693Z,13.43
2018-04-14T00:34:17.161Z,13.03
2018-04-14T00:36:46.222Z,13.03
2018-04-14T00:39:14.141Z,14.97
2018-04-14T00:41:42.591Z,15.17
2018-04-14T00:44:10.292Z,14.03
2018-04-14T00:46:39.338Z,12.40
2018-04-14T00:49:07.023Z,12.20
2018-04-14T00:51:34.709Z,12.40
2018-04-14T00:54:03.265Z,12.10
2018-04-14T00:56:30.980Z,10.57
2018-04-14T00:58:58.752Z,11.57
2018-04-14T01:01:26.510Z,9.77
2018-04-14T01:03:55.019Z,10.70
2018-04-14T01:06:23.500Z,11.03
2018-04-14T01:08:51.198Z,10.77
2018-04-14T01:11:19.727Z,12.03
2018-04-14T01:13:48.185Z,11.60
2018-04-14T01:16:15.906Z,11.60
2018-04-14T01:18:43.845Z,10.57
2018-04-14T01:21:11.517Z,11.77
2018-04-14T01:23:39.957Z,12.80
2018-04-14T01:26:07.654Z,18.13
2018-04-14T01:28:35.370Z,18.50
2018-04-14T01:31:04.078Z,16.53
2018-04-14T01:33:31.810Z,16.17
2018-04-14T01:36:00.352Z,16.73
2018-04-14T01:38:29.435Z,15.40
2018-04-14T01:40:57.123Z,16.60
2018-04-14T01:43:25.332Z,19.30
2018-04-14T01:45:53.009Z,17.20
2018-04-14T01:48:20.664Z,17.73
2018-04-14T01:50:49.167Z,14.83
2018-04-14T01:53:16.829Z,14.50
2018-04-14T01:55:44.528Z,13.83
2018-04-14T01:58:12.449Z,12.00
2018-04-14T02:00:40.925Z,11.03
2018-04-14T02:03:08.596Z,10.47
2018-04-14T02:05:36.317Z,10.53
2018-04-14T02:08:04.077Z,10.40
2018-04-14T02:10:31.818Z,11.17
2018-04-14T02:13:00.256Z,12.17
2018-04-14T02:15:29.468Z,11.27
2018-04-14T02:17:57.232Z,10.53
2018-04-14T02:20:24.966Z,11.33
2018-04-14T02:22:52.649Z,11.17
2018-04-14T02:25:20.633Z,11.17
2018-04-14T02:27:48.308Z,12.53
2018-04-14T02:30:16.032Z,14.70
2018-04-14T02:32:44.589Z,14.67
2018-04-14T02:35:13.110Z,19.43
2018-04-14T02:37:40.828Z,17.67
2018-04-14T02:40:08.536Z,16.40
2018-04-14T02:42:36.205Z,15.33
2018-04-14T02:45:03.952Z,17.07
2018-04-14T02:47:31.641Z,17.40
2018-04-14T02:49:59.351Z,18.30
2018-04-14T02:52:27.005Z,17.67
2018-04-14T02:54:54.678Z,22.07
2018-04-14T02:57:23.179Z,23.23
2018-04-14T02:59:50.848Z,21.60
2018-04-14T03:02:18.513Z,21.23
2018-04-14T03:04:46.205Z,22.03
2018-04-14T03:07:13.907Z,23.53
2018-04-14T03:09:41.952Z,21.80
2018-04-14T03:12:10.392Z,21.47
2018-04-14T03:14:38.046Z,20.00
2018-04-14T03:17:05.728Z,19.10
2018-04-14T03:19:35.175Z,17.20
2018-04-14T03:22:03.658Z,15.50
2018-04-14T03:24:32.075Z,13.53
2018-04-14T03:27:00.600Z,12.80
2018-04-14T03:29:28.290Z,11.10
2018-04-14T03:31:56.845Z,12.23
2018-04-14T03:34:24.553Z,12.03
2018-04-14T03:36:53.040Z,11.87
2018-04-14T03:39:20.697Z,11.23
2018-04-14T03:41:48.392Z,13.93
2018-04-14T03:44:16.104Z,13.43
2018-04-14T03:46:43.772Z,17.00
2018-04-14T03:49:11.485Z,19.93
2018-04-14T03:51:39.175Z,21.57
2018-04-14T03:54:06.851Z,19.27
2018-04-14T03:56:34.534Z,20.17
2018-04-14T03:59:02.180Z,19.87
2018-04-14T04:01:30.663Z,23.10
2018-04-14T04:03:58.320Z,21.37
2018-04-14T04:06:25.974Z,20.27
2018-04-14T04:08:54.388Z,19.57
2018-04-14T04:11:22.036Z,19.93
2018-04-14T04:13:49.725Z,16.13
2018-04-14T04:16:18.484Z,15.07
2018-04-14T04:18:58.374Z,15.50
2018-04-14T04:21:38.325Z,15.80
2018-04-14T04:24:17.837Z,16.53
2018-04-14T04:26:45.530Z,18.53
2018-04-14T04:29:14.699Z,18.23
2018-04-14T04:31:42.353Z,24.47
2018-04-14T04:34:10.033Z,24.13
2018-04-14T04:36:39.043Z,22.90
2018-04-14T04:39:06.725Z,21.33
2018-04-14T04:41:34.409Z,19.07
2018-04-14T04:44:02.890Z,16.70
2018-04-14T04:46:33.882Z,16.43
2018-04-14T04:49:01.525Z,16.40
2018-04-14T04:51:29.614Z,12.37
2018-04-14T04:53:57.279Z,16.03
2018-04-14T04:56:24.969Z,18.20
2018-04-14T04:58:52.645Z,14.13
2018-04-14T05:01:20.308Z,14.03
2018-04-14T05:03:48.076Z,13.30
2018-04-14T05:06:15.836Z,13.67
2018-04-14T05:08:44.051Z,13.87
2018-04-14T05:11:11.716Z,17.07
2018-04-14T05:13:39.390Z,15.20
2018-04-14T05:16:07.195Z,23.30
2018-04-14T05:18:34.913Z,27.53
2018-04-14T05:21:02.640Z,27.57
2018-04-14T05:23:31.128Z,29.37
2018-04-14T05:25:58.824Z,27.90
2018-04-14T05:28:27.464Z,26.70
2018-04-14T05:30:55.138Z,28.03
2018-04-14T05:33:22.869Z,25.80
2018-04-14T05:35:50.568Z,24.80
2018-04-14T05:38:18.984Z,22.00
2018-04-14T05:40:47.827Z,24.27
2018-04-14T05:43:15.567Z,21.57
2018-04-14T05:45:43.228Z,19.37
2018-04-14T05:48:10.940Z,18.37
2018-04-14T05:50:38.678Z,17.67
2018-04-14T05:53:06.334Z,15.97
2018-04-14T05:55:33.981Z,17.47
2018-04-14T05:58:01.697Z,20.20
2018-04-14T06:00:29.454Z,23.73
2018-04-14T06:02:57.194Z,23.07
2018-04-14T06:05:24.876Z,16.87
2018-04-14T06:07:52.658Z,20.10
2018-04-14T06:10:21.004Z,22.23
2018-04-14T06:12:48.672Z,24.70
2018-04-14T06:15:16.331Z,22.47
2018-04-14T06:17:44.274Z,21.67
2018-04-14T06:20:12.002Z,20.13
2018-04-14T06:22:40.023Z,18.83
2018-04-14T06:25:07.753Z,16.43
2018-04-14T06:27:35.408Z,17.53
2018-04-14T06:30:03.148Z,18.40
2018-04-14T06:32:30.798Z,16.97
2018-04-14T06:34:59.341Z,14.83
2018-04-14T06:37:27.429Z,17.90
2018-04-14T06:39:55.197Z,15.90
2018-04-14T06:42:23.966Z,21.37
2018-04-14T06:44:51.634Z,22.40
2018-04-14T06:47:19.380Z,17.30
2018-04-14T06:49:47.115Z,17.97
2018-04-14T06:52:14.845Z,16.37
2018-04-14T06:54:42.513Z,18.27
2018-04-14T06:57:10.193Z,14.27
2018-04-14T06:59:38.693Z,18.40
2018-04-14T07:02:06.753Z,17.17
2018-04-14T07:04:34.442Z,20.13
2018-04-14T07:07:02.334Z,15.87
2018-04-14T07:09:31.121Z,15.20
2018-04-14T07:11:59.118Z,11.70
2018-04-14T07:14:26.832Z,13.17
2018-04-14T07:16:54.725Z,12.10
2018-04-14T07:19:22.983Z,14.33
2018-04-14T07:21:50.797Z,13.07
2018-04-14T07:24:19.521Z,15.50
2018-04-14T07:26:48.456Z,21.00
2018-04-14T07:29:16.604Z,19.60
2018-04-14T07:31:46.100Z,19.93
2018-04-14T07:34:14.586Z,16.97
2018-04-14T07:36:45.605Z,22.10
2018-04-14T07:39:13.328Z,15.07
2018-04-14T07:41:44.382Z,16.40
2018-04-14T07:44:14.609Z,18.70
2018-04-14T07:46:42.359Z,21.87
2018-04-14T07:49:10.031Z,19.43
2018-04-14T07:51:37.726Z,15.67
2018-04-14T07:54:05.477Z,17.73
2018-04-14T07:56:33.969Z,16.50
2018-04-14T07:59:04.366Z,14.37
2018-04-14T08:01:32.077Z,18.50
2018-04-14T08:03:59.745Z,13.33
2018-04-14T08:06:27.791Z,16.07
2018-04-14T08:08:55.476Z,14.83
2018-04-14T08:11:25.168Z,17.07
2018-04-14T08:13:52.883Z,14.70
2018-04-14T08:16:22.120Z,15.07
2018-04-14T08:18:49.769Z,13.70
2018-04-14T08:21:17.460Z,16.13
2018-04-14T08:23:45.875Z,12.20
2018-04-14T08:26:14.605Z,17.00
2018-04-14T08:28:43.863Z,12.97
2018-04-14T08:31:11.609Z,14.80
2018-04-14T08:33:39.597Z,12.63
2018-04-14T08:36:07.417Z,13.50
2018-04-14T08:38:35.124Z,13.83
2018-04-14T08:41:02.819Z,14.23
2018-04-14T08:43:30.862Z,14.93
2018-04-14T08:45:58.728Z,14.43
2018-04-14T08:48:26.403Z,13.37
2018-04-14T08:50:54.175Z,15.77
2018-04-14T08:53:22.712Z,13.27
2018-04-14T08:55:50.843Z,13.40
2018-04-14T08:58:18.578Z,13.40
2018-04-14T09:00:48.665Z,13.67
2018-04-14T09:03:18.136Z,13.63
2018-04-14T09:05:46.724Z,13.97
2018-04-14T09:08:14.859Z,13.30
2018-04-14T09:10:44.205Z,11.77
2018-04-14T09:13:15.040Z,14.07
2018-04-14T09:15:42.935Z,15.87
2018-04-14T09:18:14.256Z,15.27
2018-04-14T09:20:42.140Z,15.67
2018-04-14T09:23:10.091Z,16.00
2018-04-14T09:25:38.298Z,12.93
2018-04-14T09:28:09.392Z,17.47
2018-04-14T09:30:37.933Z,16.67
2018-04-14T09:33:06.802Z,16.00
2018-04-14T09:35:35.867Z,16.87
2018-04-14T09:38:04.224Z,17.57
2018-04-14T09:40:32.525Z,15.70
2018-04-14T09:43:00.207Z,16.93
2018-04-14T09:45:27.960Z,16.30
2018-04-14T09:47:55.714Z,14.07
2018-04-14T09:50:24.318Z,16.27
2018-04-14T09:52:52.045Z,17.10
2018-04-14T09:55:19.709Z,16.27
2018-04-14T09:57:47.426Z,16.13
2018-04-14T10:00:20.683Z,15.10
2018-04-14T10:02:48.379Z,14.60
2018-04-14T10:05:16.088Z,15.90
2018-04-14T10:07:43.740Z,14.63
2018-04-14T10:10:11.492Z,13.43
2018-04-14T10:12:39.187Z,12.83
2018-04-14T10:15:07.653Z,13.83
2018-04-14T10:17:35.339Z,13.33
2018-04-14T10:20:04.628Z,11.63
2018-04-14T10:22:32.304Z,12.13
2018-04-14T10:25:00.157Z,12.57
2018-04-14T10:27:28.200Z,12.97
2018-04-14T10:29:55.928Z,14.23
2018-04-14T10:32:23.809Z,14.37
2018-04-14T10:34:51.539Z,14.50
2018-04-14T10:37:19.224Z,13.90
2018-04-14T10:39:47.709Z,13.43
2018-04-14T10:42:16.169Z,13.20
2018-04-14T10:44:43.905Z,13.47
2018-04-14T10:47:11.678Z,12.80
2018-04-14T10:49:39.764Z,11.73
2018-04-14T10:52:07.782Z,12.47
2018-04-14T10:54:35.505Z,12.47
2018-04-14T10:57:03.562Z,11.57
2018-04-14T10:59:32.459Z,12.33
2018-04-14T11:02:01.400Z,12.13
2018-04-14T11:04:29.099Z,13.07
2018-04-14T11:06:57.580Z,11.47
2018-04-14T11:09:25.738Z,12.17
2018-04-14T11:11:53.431Z,13.20
2018-04-14T11:14:32.764Z,12.87
2018-04-14T11:17:00.445Z,10.83
2018-04-14T11:19:28.093Z,11.10
2018-04-14T11:24:30.925Z,10.93
2018-04-14T11:26:58.600Z,11.47
2018-04-14T11:29:26.320Z,11.63
2018-04-14T11:31:54.733Z,11.63
2018-04-14T11:34:22.697Z,12.30
2018-04-14T11:36:51.186Z,11.47
2018-04-14T11:39:19.188Z,12.87
2018-04-14T11:41:46.847Z,12.10
2018-04-14T11:44:14.675Z,11.53
2018-04-14T11:46:42.439Z,11.30
2018-04-14T11:49:10.652Z,10.60
2018-04-14T11:51:38.356Z,13.17
2018-04-14T11:54:06.263Z,12.40
2018-04-14T11:56:34.810Z,10.90
2018-04-14T11:59:02.508Z,10.50
2018-04-14T12:01:30.180Z,11.57
2018-04-14T12:03:58.024Z,10.57
2018-04-14T12:06:25.877Z,12.10
2018-04-14T12:08:53.615Z,9.80
2018-04-14T12:11:22.566Z,11.60
2018-04-14T12:13:50.254Z,11.40
2018-04-14T12:16:17.916Z,11.10
2018-04-14T12:18:45.649Z,10.97
2018-04-14T12:21:13.408Z,10.50
2018-04-14T12:23:41.156Z,10.50
2018-04-14T12:26:08.904Z,12.40
2018-04-14T12:28:36.572Z,11.20
2018-04-14T12:31:04.336Z,10.30
2018-04-14T12:33:32.048Z,10.80
2018-04-14T12:35:59.730Z,9.93
2018-04-14T12:38:28.121Z,10.70
2018-04-14T12:40:56.480Z,11.93
2018-04-14T12:43:24.161Z,12.53
2018-04-14T12:45:51.801Z,11.43
2018-04-14T12:48:19.476Z,12.10
2018-04-14T12:50:47.149Z,12.20
2018-04-14T12:53:15.069Z,13.03
2018-04-14T12:55:42.704Z,12.00
2018-04-14T12:58:10.350Z,11.43
2018-04-14T13:00:38.075Z,12.93
2018-04-14T13:03:06.592Z,13.00
2018-04-14T13:05:34.289Z,12.53
2018-04-14T13:08:02.028Z,12.37
2018-04-14T13:10:29.757Z,11.57
2018-04-14T13:12:58.407Z,11.97
2018-04-14T13:15:26.107Z,11.40
2018-04-14T13:17:53.759Z,11.83
2018-04-14T13:20:21.885Z,9.83
2018-04-14T13:22:49.581Z,11.40
2018-04-14T13:25:17.356Z,11.93
2018-04-14T13:27:45.036Z,12.30
2018-04-14T13:30:12.752Z,12.57
2018-04-14T13:32:40.442Z,11.07
2018-04-14T13:35:08.105Z,12.57
2018-04-14T13:37:36.592Z,11.60
2018-04-14T13:40:04.286Z,13.17
2018-04-14T13:42:31.945Z,13.60
2018-04-14T13:44:59.653Z,11.00
2018-04-14T13:47:27.884Z,11.07
2018-04-14T13:49:55.589Z,10.63
2018-04-14T13:52:23.233Z,10.87
2018-04-14T13:54:50.919Z,12.03
2018-04-14T13:57:19.153Z,10.67
2018-04-14T13:59:47.514Z,9.60
2018-04-14T14:02:15.472Z,11.33
2018-04-14T14:04:43.546Z,9.17
2018-04-14T14:07:11.422Z,11.87
2018-04-14T14:09:39.424Z,8.20
2018-04-14T14:12:07.773Z,9.57
2018-04-14T14:14:36.088Z,9.63
2018-04-14T14:17:03.989Z,9.23
2018-04-14T14:19:31.749Z,10.93
2018-04-14T14:22:00.500Z,11.68
2018-04-14T14:24:29.337Z,7.78
2018-04-14T14:26:57.704Z,10.00
2018-04-14T14:29:27.890Z,9.53
2018-04-14T14:31:55.787Z,9.77
2018-04-14T14:34:23.447Z,9.33
2018-04-14T14:36:52.738Z,9.00
2018-04-14T14:39:21.139Z,10.23
2018-04-14T14:41:49.586Z,9.67
2018-04-14T14:44:17.436Z,9.07
2018-04-14T14:46:45.482Z,8.00
2018-04-14T14:49:14.833Z,8.13
2018-04-14T14:51:42.514Z,7.77
2018-04-14T14:54:11.581Z,11.53
2018-04-14T14:56:40.634Z,11.73
2018-04-14T14:59:09.223Z,10.97
2018-04-14T15:01:38.190Z,8.73
2018-04-14T15:04:06.049Z,10.45
2018-04-14T15:06:34.244Z,9.98
2018-04-14T15:09:02.337Z,9.20
2018-04-14T15:11:31.671Z,7.50
2018-04-14T15:13:59.317Z,8.23
2018-04-14T15:16:26.966Z,9.82
2018-04-14T15:18:54.689Z,10.82
2018-04-14T15:21:22.369Z,10.95
2018-04-14T15:23:50.054Z,6.82
2018-04-14T15:26:17.976Z,8.45
2018-04-14T15:28:45.713Z,10.05
2018-04-14T15:31:14.145Z,8.93
2018-04-14T15:33:41.890Z,11.23
2018-04-14T15:36:09.575Z,6.87
2018-04-14T15:38:37.755Z,9.10
2018-04-14T15:41:05.545Z,10.10
2018-04-14T15:43:33.462Z,10.30
2018-04-14T15:46:02.786Z,10.27
2018-04-14T15:48:30.741Z,8.88
2018-04-14T15:50:58.425Z,9.45
2018-04-14T15:53:26.166Z,9.80
2018-04-14T15:55:53.860Z,8.95
2018-04-14T15:58:21.575Z,8.07
2018-04-14T16:00:49.993Z,10.85
2018-04-14T16:03:18.424Z,9.50
2018-04-14T16:05:46.119Z,12.95
2018-04-14T16:08:14.313Z,9.52
2018-04-14T16:10:42.021Z,7.80
2018-04-14T16:13:09.703Z,6.97
2018-04-14T16:15:37.389Z,8.25
2018-04-14T16:18:05.905Z,10.63
2018-04-14T16:20:34.285Z,12.00
2018-04-14T16:23:02.010Z,9.07
2018-04-14T16:25:29.688Z,7.20
2018-04-14T16:27:57.332Z,8.13
2018-04-14T16:30:25.653Z,7.43
2018-04-14T16:32:54.101Z,5.93
2018-04-14T16:35:21.778Z,7.78
2018-04-14T16:37:49.812Z,7.55
2018-04-14T16:40:17.960Z,9.15
2018-04-14T16:42:45.680Z,6.47
2018-04-14T16:45:14.137Z,6.43
2018-04-14T16:47:42.896Z,6.50
2018-04-14T16:50:10.651Z,6.95
2018-04-14T16:52:38.553Z,6.03
2018-04-14T16:55:07.216Z,6.40
2018-04-14T16:57:35.974Z,7.80
2018-04-14T17:00:04.540Z,8.25
2018-04-14T17:02:32.224Z,6.20
2018-04-14T17:05:00.069Z,8.52
2018-04-14T17:07:28.152Z,8.40
2018-04-14T17:09:55.865Z,6.72
2018-04-14T17:12:23.584Z,6.47
2018-04-14T17:14:51.258Z,6.62
2018-04-14T17:17:19.803Z,6.95
2018-04-14T17:19:47.568Z,5.95
2018-04-14T17:22:15.233Z,6.80
2018-04-14T17:24:43.713Z,5.80
2018-04-14T17:27:12.238Z,7.50
2018-04-14T17:29:40.800Z,7.20
2018-04-14T17:32:08.722Z,8.07
2018-04-14T17:34:37.122Z,6.93
2018-04-14T17:37:04.958Z,6.57
2018-04-14T17:39:33.631Z,7.07
2018-04-14T17:42:01.705Z,7.82
2018-04-14T17:44:30.393Z,6.97
2018-04-14T17:47:00.065Z,7.07
2018-04-14T17:49:28.597Z,6.22
2018-04-14T17:51:57.150Z,7.23
2018-04-14T17:54:24.920Z,7.68
2018-04-14T17:56:52.876Z,5.78
2018-04-14T17:59:21.296Z,6.60
2018-04-14T18:01:49.435Z,6.70
2018-04-14T18:04:17.207Z,6.07
2018-04-14T18:06:46.413Z,5.63
2018-04-14T18:09:14.608Z,5.80
2018-04-14T18:11:42.808Z,5.93
2018-04-14T18:14:11.206Z,6.20
2018-04-14T18:16:40.388Z,6.50
2018-04-14T18:19:10.122Z,6.53
2018-04-14T18:21:38.544Z,6.63
2018-04-14T18:24:06.238Z,6.27
2018-04-14T18:26:33.916Z,6.67
2018-04-14T18:29:01.570Z,8.10
2018-04-14T18:31:29.335Z,7.27
2018-04-14T18:33:57.045Z,6.70
2018-04-14T18:36:24.707Z,6.97
2018-04-14T18:38:52.406Z,5.90
2018-04-14T18:41:20.199Z,6.13
2018-04-14T18:43:47.848Z,6.10
2018-04-14T18:46:15.528Z,6.67
2018-04-14T18:48:44.181Z,5.40
2018-04-14T18:51:11.873Z,5.30
2018-04-14T18:53:39.552Z,6.93
2018-04-14T18:56:07.233Z,6.27
2018-04-14T18:58:35.428Z,5.87
2018-04-14T19:01:04.673Z,5.67
2018-04-14T19:03:32.372Z,6.00
2018-04-14T19:06:01.764Z,5.50
2018-04-14T19:08:30.002Z,5.70
2018-04-14T19:10:58.288Z,6.30
2018-04-14T19:13:25.954Z,6.60
2018-04-14T19:15:54.228Z,6.20
2018-04-14T19:18:23.830Z,6.53
2018-04-14T19:20:51.504Z,5.93
2018-04-14T19:23:19.174Z,6.40
2018-04-14T19:25:46.872Z,6.33
2018-04-14T19:28:14.536Z,6.73
2018-04-14T19:30:42.269Z,6.30
2018-04-14T19:33:09.926Z,6.47
2018-04-14T19:35:38.940Z,6.00
2018-04-14T19:38:06.818Z,6.33
2018-04-14T19:40:34.741Z,6.77
2018-04-14T19:43:03.774Z,7.00
2018-04-14T19:45:31.578Z,7.30
2018-04-14T19:48:00.004Z,7.10
2018-04-14T19:50:27.885Z,6.70
2018-04-14T19:52:56.158Z,7.30
2018-04-14T19:55:24.650Z,7.13
2018-04-14T19:57:52.611Z,7.67
2018-04-14T20:00:21.098Z,7.80
2018-04-14T20:02:49.479Z,8.30
2018-04-14T20:05:17.237Z,11.10
2018-04-14T20:07:44.920Z,10.07
2018-04-14T20:10:12.998Z,11.77
2018-04-14T20:12:41.582Z,16.13
2018-04-14T20:15:09.247Z,14.97
2018-04-14T20:17:37.138Z,17.47
2018-04-14T20:20:04.943Z,16.50
2018-04-14T20:22:33.402Z,13.90
2018-04-14T20:25:01.193Z,11.90
2018-04-14T20:27:29.029Z,12.87
2018-04-14T20:29:57.524Z,10.90
2018-04-14T20:32:26.717Z,9.87
2018-04-14T20:34:54.474Z,9.80
2018-04-14T20:37:22.981Z,9.20
2018-04-14T20:39:51.536Z,9.50
2018-04-14T20:42:19.195Z,9.60
2018-04-14T20:44:47.472Z,7.50
2018-04-14T20:47:15.572Z,8.77
2018-04-14T20:49:43.762Z,8.17
2018-04-14T20:52:11.453Z,8.30
2018-04-14T20:54:40.009Z,9.63
2018-04-14T20:57:08.467Z,8.67
2018-04-14T20:59:37.017Z,8.60
2018-04-14T21:02:04.916Z,8.77
2018-04-14T21:04:32.725Z,9.63
2018-04-14T21:07:01.288Z,9.90
2018-04-14T21:09:29.444Z,9.53
2018-04-14T21:11:57.920Z,10.07
2018-04-14T21:14:25.908Z,9.67
2018-04-14T21:16:53.605Z,8.47
2018-04-14T21:19:21.433Z,9.63
2018-04-14T21:21:49.225Z,9.03
2018-04-14T21:24:16.902Z,9.47
2018-04-14T21:26:44.689Z,10.10
2018-04-14T21:29:12.382Z,8.87
2018-04-14T21:31:40.777Z,8.73
2018-04-14T21:34:08.488Z,8.87
2018-04-14T21:36:38.205Z,9.47
2018-04-14T21:39:06.077Z,10.07
2018-04-14T21:41:33.812Z,10.13
2018-04-14T21:44:01.596Z,9.13
2018-04-14T21:46:29.893Z,8.60
2018-04-14T21:48:57.569Z,8.87
2018-04-14T21:51:25.484Z,8.70
2018-04-14T21:53:53.895Z,9.23
2018-04-14T21:56:21.752Z,10.63
2018-04-14T21:58:49.424Z,9.17
2018-04-14T22:01:18.163Z,9.50
2018-04-14T22:03:46.411Z,10.17
2018-04-14T22:06:14.627Z,11.30
2018-04-14T22:08:43.314Z,10.83
2018-04-14T22:11:11.074Z,10.20
2018-04-14T22:13:39.371Z,9.50
2018-04-14T22:16:07.353Z,9.90
2018-04-14T22:18:35.129Z,8.83
2018-04-14T22:21:02.853Z,10.07
2018-04-14T22:23:30.519Z,11.63
2018-04-14T22:25:58.500Z,10.07
2018-04-14T22:28:26.213Z,10.80
2018-04-14T22:30:53.868Z,11.10
2018-04-14T22:33:21.541Z,10.50
2018-04-14T22:35:50.712Z,10.50
2018-04-14T22:38:18.965Z,11.53
2018-04-14T22:40:46.689Z,10.73
2018-04-14T22:43:15.127Z,11.63
2018-04-14T22:45:42.816Z,11.93
2018-04-14T22:48:10.469Z,12.37
2018-04-14T22:50:38.378Z,13.40
2018-04-14T22:53:06.900Z,12.30
2018-04-14T22:55:35.430Z,11.87
2018-04-14T22:58:03.080Z,12.00
2018-04-14T23:00:30.781Z,12.50
2018-04-14T23:02:59.313Z,12.83
2018-04-14T23:05:27.057Z,13.83
2018-04-14T23:07:55.364Z,18.13
2018-04-14T23:10:23.228Z,16.67
2018-04-14T23:12:52.327Z,17.07
2018-04-14T23:15:20.961Z,16.20
2018-04-14T23:17:48.901Z,17.00
2018-04-14T23:20:16.599Z,20.93
2018-04-14T23:22:46.786Z,21.20
2018-04-14T23:25:15.699Z,23.47
2018-04-14T23:27:43.440Z,21.43
2018-04-14T23:30:12.989Z,21.07
2018-04-14T23:32:40.851Z,21.87
2018-04-14T23:35:09.331Z,22.47
2018-04-14T23:37:37.060Z,24.03
2018-04-14T23:40:04.778Z,27.23
2018-04-14T23:42:33.273Z,27.83
2018-04-14T23:45:03.923Z,26.70
2018-04-14T23:47:31.885Z,27.77
2018-04-14T23:49:59.714Z,32.87
2018-04-14T23:52:27.634Z,28.60
2018-04-14T23:54:56.676Z,30.80
2018-04-14T23:57:24.869Z,28.13
2018-04-14T23:59:52.713Z,29.93
